Time;durP1;ratioP1;P1;durP2;ratioP2;P2;SDS_P1;SDS_P2;PMS_P1;PMS_P2;Temp;Humidity;BMP_temperature;BMP_pressure;BME280_temperature;BME280_humidity;BME280_pressure;Samples;Min_cycle;Max_cycle;Signal;HPM_P1;HPM_P2
2023/12/29 00:01:32;;;;;;;3.83;2.60;;;;;;;;;;5030319;28;20224;-56
2023/12/29 00:03:58;;;;;;;3.03;1.83;;;;;;;;;;5032100;28;20671;-56
2023/12/29 00:06:24;;;;;;;3.03;1.43;;;;;;;;;;5030166;28;20189;-56
2023/12/29 00:08:50;;;;;;;3.43;1.60;;;;;;;;;;5030200;28;20259;-56
2023/12/29 00:11:22;;;;;;;3.77;1.70;;;;;;;;;;5031087;28;20194;-56
2023/12/29 00:13:48;;;;;;;3.47;2.00;;;;;;;;;;5029043;28;20209;-57
2023/12/29 00:16:17;;;;;;;3.60;1.53;;;;;;;;;;5029614;28;20240;-56
2023/12/29 00:18:43;;;;;;;4.37;1.70;;;;;;;;;;5031126;28;20196;-56
2023/12/29 00:21:09;;;;;;;3.00;1.70;;;;;;;;;;5028103;28;20215;-56
2023/12/29 00:23:35;;;;;;;4.90;2.63;;;;;;;;;;5031707;28;20567;-56
2023/12/29 00:26:02;;;;;;;3.20;1.70;;;;;;;;;;5036070;28;21507;-56
2023/12/29 00:28:28;;;;;;;2.80;1.47;;;;;;;;;;5031133;28;20182;-56
2023/12/29 00:30:54;;;;;;;5.37;2.03;;;;;;;;;;5031059;28;20544;-56
2023/12/29 00:33:20;;;;;;;2.07;1.33;;;;;;;;;;5031275;28;20657;-56
2023/12/29 00:35:46;;;;;;;5.10;1.63;;;;;;;;;;5031343;28;20182;-56
2023/12/29 00:38:12;;;;;;;6.80;2.97;;;;;;;;;;5031470;28;20559;-56
2023/12/29 00:40:38;;;;;;;2.53;1.60;;;;;;;;;;5031855;28;20217;-56
2023/12/29 00:43:04;;;;;;;3.97;2.03;;;;;;;;;;5030235;28;20169;-56
2023/12/29 00:45:32;;;;;;;5.43;1.90;;;;;;;;;;5022634;28;20674;-57
2023/12/29 00:47:59;;;;;;;2.90;1.67;;;;;;;;;;5031766;28;20167;-56
2023/12/29 00:50:26;;;;;;;4.13;1.57;;;;;;;;;;5031037;28;20240;-56
2023/12/29 00:52:52;;;;;;;4.23;1.90;;;;;;;;;;5030776;28;20186;-56
2023/12/29 00:55:18;;;;;;;2.17;1.70;;;;;;;;;;5031604;28;20508;-56
2023/12/29 00:57:44;;;;;;;4.73;2.00;;;;;;;;;;5031529;28;20194;-56
2023/12/29 01:00:12;;;;;;;3.67;2.20;;;;;;;;;;5028413;28;20822;-56
2023/12/29 01:02:38;;;;;;;2.83;1.90;;;;;;;;;;5029768;28;20258;-54
2023/12/29 01:05:04;;;;;;;1.80;1.50;;;;;;;;;;5030843;28;20173;-54
2023/12/29 01:07:30;;;;;;;3.30;1.90;;;;;;;;;;5028538;28;20197;-54
2023/12/29 01:09:56;;;;;;;3.70;2.33;;;;;;;;;;5030905;28;20177;-56
2023/12/29 01:12:22;;;;;;;3.13;1.87;;;;;;;;;;5030715;28;20661;-54
2023/12/29 01:14:48;;;;;;;7.87;1.90;;;;;;;;;;5030389;28;20209;-54
2023/12/29 01:17:14;;;;;;;7.13;2.40;;;;;;;;;;5029808;28;20244;-53
2023/12/29 01:19:40;;;;;;;2.37;1.60;;;;;;;;;;5029787;28;20667;-54
2023/12/29 01:22:06;;;;;;;2.83;1.90;;;;;;;;;;5023669;28;20178;-54
2023/12/29 01:24:32;;;;;;;2.47;1.67;;;;;;;;;;5035392;28;20212;-53
2023/12/29 01:26:58;;;;;;;4.17;1.90;;;;;;;;;;5030317;28;20216;-53
2023/12/29 01:29:24;;;;;;;3.87;2.00;;;;;;;;;;5030803;28;20178;-53
2023/12/29 01:31:50;;;;;;;3.23;1.60;;;;;;;;;;5030041;28;20194;-53
2023/12/29 01:34:16;;;;;;;5.33;1.90;;;;;;;;;;5033204;28;20588;-53
2023/12/29 01:36:42;;;;;;;5.53;1.80;;;;;;;;;;5024554;28;20177;-54
2023/12/29 01:39:08;;;;;;;4.00;1.60;;;;;;;;;;5029772;28;20602;-54
2023/12/29 01:41:34;;;;;;;6.07;2.30;;;;;;;;;;5029732;28;20215;-52
2023/12/29 01:44:00;;;;;;;5.33;1.97;;;;;;;;;;5028034;28;20190;-54
2023/12/29 01:46:27;;;;;;;4.70;1.67;;;;;;;;;;5029143;28;20541;-53
2023/12/29 01:48:53;;;;;;;2.20;1.70;;;;;;;;;;5030198;28;20181;-53
2023/12/29 01:51:21;;;;;;;5.47;1.90;;;;;;;;;;5029071;28;20232;-53
2023/12/29 01:53:47;;;;;;;4.87;1.93;;;;;;;;;;5026174;28;20783;-54
2023/12/29 01:56:14;;;;;;;7.83;2.03;;;;;;;;;;5030514;28;20187;-53
2023/12/29 01:58:40;;;;;;;5.70;2.30;;;;;;;;;;5030134;28;20712;-54
2023/12/29 02:01:07;;;;;;;4.10;1.80;;;;;;;;;;5028877;28;20620;-54
2023/12/29 02:03:34;;;;;;;5.40;1.90;;;;;;;;;;5029846;28;20178;-54
2023/12/29 02:06:00;;;;;;;2.77;1.80;;;;;;;;;;5029670;28;20182;-52
2023/12/29 02:08:26;;;;;;;4.47;2.00;;;;;;;;;;5028832;28;20267;-52
2023/12/29 02:10:52;;;;;;;5.63;2.27;;;;;;;;;;5027434;28;20649;-54
2023/12/29 02:13:18;;;;;;;2.90;1.63;;;;;;;;;;5029761;28;20201;-54
2023/12/29 02:15:45;;;;;;;2.60;1.67;;;;;;;;;;5027672;28;20229;-53
2023/12/29 02:18:14;;;;;;;6.20;1.83;;;;;;;;;;5029453;28;20192;-55
2023/12/29 02:20:42;;;;;;;4.53;2.00;;;;;;;;;;5029908;28;20297;-52
2023/12/29 02:23:09;;;;;;;7.50;1.97;;;;;;;;;;5028171;28;20600;-53
2023/12/29 02:25:35;;;;;;;5.33;2.07;;;;;;;;;;5029111;28;20546;-53
2023/12/29 02:28:12;;;;;;;5.90;1.97;;;;;;;;;;5029702;28;20181;-56
2023/12/29 02:30:38;;;;;;;6.37;1.83;;;;;;;;;;5027125;28;20192;-53
2023/12/29 02:33:10;;;;;;;3.43;1.80;;;;;;;;;;5028498;28;20554;-53
2023/12/29 02:35:40;;;;;;;3.77;1.87;;;;;;;;;;5023690;28;20209;-55
2023/12/29 02:38:06;;;;;;;3.53;1.90;;;;;;;;;;5027376;28;20657;-53
2023/12/29 02:40:32;;;;;;;7.73;2.23;;;;;;;;;;5028972;28;20339;-53
2023/12/29 02:42:58;;;;;;;3.57;1.90;;;;;;;;;;5025215;28;20676;-54
2023/12/29 02:45:24;;;;;;;4.73;3.30;;;;;;;;;;5026150;28;20305;-53
2023/12/29 02:47:51;;;;;;;3.33;2.00;;;;;;;;;;5025983;28;20166;-55
2023/12/29 02:50:17;;;;;;;4.17;2.20;;;;;;;;;;5028359;28;20197;-53
2023/12/29 02:52:43;;;;;;;8.43;2.13;;;;;;;;;;5028608;28;20203;-54
2023/12/29 02:55:09;;;;;;;5.97;2.60;;;;;;;;;;5028396;28;20269;-54
2023/12/29 02:57:35;;;;;;;6.47;1.90;;;;;;;;;;5029109;28;20633;-53
2023/12/29 03:00:01;;;;;;;4.30;1.73;;;;;;;;;;5028125;28;20197;-53
2023/12/29 03:02:27;;;;;;;4.83;2.30;;;;;;;;;;5026758;28;20186;-53
2023/12/29 03:04:53;;;;;;;4.77;1.87;;;;;;;;;;5027572;28;20735;-55
2023/12/29 03:07:19;;;;;;;5.87;2.40;;;;;;;;;;5029105;28;20208;-54
2023/12/29 03:09:45;;;;;;;5.00;1.97;;;;;;;;;;5022561;28;20171;-54
2023/12/29 03:12:11;;;;;;;3.90;2.30;;;;;;;;;;5028145;28;20244;-57
2023/12/29 03:14:37;;;;;;;5.00;1.87;;;;;;;;;;5028909;28;20593;-53
2023/12/29 03:17:03;;;;;;;9.73;2.10;;;;;;;;;;5026204;28;20222;-57
2023/12/29 03:19:29;;;;;;;4.43;2.27;;;;;;;;;;5024330;28;20253;-57
2023/12/29 03:21:55;;;;;;;7.57;2.20;;;;;;;;;;5027781;28;20217;-58
2023/12/29 03:24:21;;;;;;;6.63;2.23;;;;;;;;;;5029187;28;20170;-54
2023/12/29 03:26:47;;;;;;;5.47;2.20;;;;;;;;;;5029007;28;20169;-54
2023/12/29 03:29:13;;;;;;;5.37;2.63;;;;;;;;;;5025616;28;20709;-55
2023/12/29 03:31:39;;;;;;;2.60;2.10;;;;;;;;;;5028496;28;20205;-54
2023/12/29 03:34:06;;;;;;;5.27;2.37;;;;;;;;;;5026859;28;20182;-54
2023/12/29 03:36:32;;;;;;;6.03;2.67;;;;;;;;;;5028457;28;20182;-54
2023/12/29 03:38:58;;;;;;;7.23;2.50;;;;;;;;;;5030452;28;20181;-55
2023/12/29 03:41:24;;;;;;;5.32;2.40;;;;;;;;;;5028141;28;20808;-54
2023/12/29 03:43:50;;;;;;;4.43;2.27;;;;;;;;;;5028121;28;20181;-53
2023/12/29 03:46:17;;;;;;;2.73;1.97;;;;;;;;;;5029136;28;20175;-53
2023/12/29 03:48:43;;;;;;;7.97;2.20;;;;;;;;;;5028378;28;20182;-53
2023/12/29 03:51:09;;;;;;;4.77;1.90;;;;;;;;;;5027195;28;20184;-55
2023/12/29 03:53:35;;;;;;;4.27;2.30;;;;;;;;;;5028002;28;20216;-54
2023/12/29 03:56:05;;;;;;;4.07;2.07;;;;;;;;;;5029319;28;20201;-53
2023/12/29 03:58:31;;;;;;;2.80;1.67;;;;;;;;;;5027973;28;20186;-53
2023/12/29 04:00:57;;;;;;;2.67;2.17;;;;;;;;;;5028607;28;20201;-53
2023/12/29 04:03:23;;;;;;;3.37;2.50;;;;;;;;;;5027545;28;20182;-53
2023/12/29 04:05:49;;;;;;;3.70;2.20;;;;;;;;;;5030483;28;20170;-54
2023/12/29 04:08:15;;;;;;;5.37;2.33;;;;;;;;;;5031467;28;20170;-53
2023/12/29 04:10:41;;;;;;;5.90;2.53;;;;;;;;;;5032437;28;20178;-54
2023/12/29 04:13:07;;;;;;;4.47;1.80;;;;;;;;;;5031103;28;20716;-54
2023/12/29 04:15:33;;;;;;;4.80;2.40;;;;;;;;;;5032200;28;20214;-54
2023/12/29 04:17:59;;;;;;;6.53;2.23;;;;;;;;;;5030450;28;20178;-54
2023/12/29 04:20:26;;;;;;;4.07;1.87;;;;;;;;;;5030804;28;20214;-53
2023/12/29 04:22:52;;;;;;;5.63;2.43;;;;;;;;;;5029725;28;20195;-53
2023/12/29 04:25:18;;;;;;;3.67;2.23;;;;;;;;;;5030781;28;20195;-54
2023/12/29 04:27:44;;;;;;;2.83;2.07;;;;;;;;;;5030716;28;20177;-53
2023/12/29 04:30:10;;;;;;;3.57;1.97;;;;;;;;;;5030587;28;20189;-54
2023/12/29 04:32:36;;;;;;;3.80;2.07;;;;;;;;;;5031042;28;20671;-55
2023/12/29 04:35:02;;;;;;;4.55;2.30;;;;;;;;;;5030913;28;20804;-57
2023/12/29 04:37:28;;;;;;;3.60;2.30;;;;;;;;;;5031446;28;20198;-57
2023/12/29 04:39:54;;;;;;;5.47;2.67;;;;;;;;;;5031120;28;20210;-57
2023/12/29 04:42:20;;;;;;;3.27;2.10;;;;;;;;;;5030583;28;20579;-57
2023/12/29 04:44:46;;;;;;;3.67;2.30;;;;;;;;;;5031584;28;20185;-58
2023/12/29 04:47:12;;;;;;;4.17;2.00;;;;;;;;;;5031803;28;20173;-57
2023/12/29 04:49:38;;;;;;;4.40;2.10;;;;;;;;;;5028977;28;20650;-58
2023/12/29 04:52:05;;;;;;;4.33;2.37;;;;;;;;;;5032369;28;20624;-58
2023/12/29 04:54:31;;;;;;;5.10;2.30;;;;;;;;;;5030317;28;20186;-57
2023/12/29 04:56:57;;;;;;;3.50;2.20;;;;;;;;;;5031434;28;20166;-58
2023/12/29 04:59:23;;;;;;;3.00;2.30;;;;;;;;;;5030068;28;20185;-57
2023/12/29 05:01:49;;;;;;;7.07;3.60;;;;;;;;;;5030834;28;20719;-57
2023/12/29 05:04:16;;;;;;;4.60;3.13;;;;;;;;;;5029874;28;20181;-57
2023/12/29 05:06:42;;;;;;;5.40;2.00;;;;;;;;;;5031183;28;20637;-57
2023/12/29 05:09:08;;;;;;;6.10;2.43;;;;;;;;;;5030903;28;20196;-58
2023/12/29 05:11:34;;;;;;;4.33;2.53;;;;;;;;;;5030865;28;20630;-57
2023/12/29 05:14:00;;;;;;;6.83;2.13;;;;;;;;;;5030573;28;20668;-58
2023/12/29 05:16:26;;;;;;;6.40;2.20;;;;;;;;;;5034810;28;20233;-58
2023/12/29 05:18:52;;;;;;;8.00;1.80;;;;;;;;;;5026656;28;20652;-59
2023/12/29 05:21:20;;;;;;;8.13;3.03;;;;;;;;;;5029223;28;20205;-57
2023/12/29 05:23:47;;;;;;;7.47;2.70;;;;;;;;;;5030256;28;20591;-57
2023/12/29 05:26:13;;;;;;;3.53;2.20;;;;;;;;;;5029980;28;20170;-57
2023/12/29 05:28:39;;;;;;;3.87;1.87;;;;;;;;;;5030633;28;20239;-57
2023/12/29 05:31:05;;;;;;;6.27;2.10;;;;;;;;;;5028726;28;20186;-57
2023/12/29 05:33:32;;;;;;;5.97;2.60;;;;;;;;;;5029050;28;20277;-57
2023/12/29 05:35:58;;;;;;;6.20;2.10;;;;;;;;;;5029847;28;20173;-58
2023/12/29 05:38:24;;;;;;;3.97;1.80;;;;;;;;;;5029642;28;20185;-57
2023/12/29 05:40:51;;;;;;;5.27;1.90;;;;;;;;;;5025061;28;20353;-57
2023/12/29 05:43:17;;;;;;;7.60;2.37;;;;;;;;;;5027279;28;20189;-53
2023/12/29 05:45:43;;;;;;;3.97;1.87;;;;;;;;;;5030876;28;20649;-54
2023/12/29 05:48:09;;;;;;;7.47;2.10;;;;;;;;;;5029939;28;20178;-54
2023/12/29 05:50:35;;;;;;;3.17;1.80;;;;;;;;;;5029671;28;20609;-55
2023/12/29 05:53:01;;;;;;;4.33;1.70;;;;;;;;;;5028366;28;20768;-55
2023/12/29 05:55:27;;;;;;;4.80;1.37;;;;;;;;;;5029670;28;20256;-57
2023/12/29 05:57:53;;;;;;;6.47;2.63;;;;;;;;;;5027959;28;20182;-58
2023/12/29 06:00:19;;;;;;;3.53;1.53;;;;;;;;;;5026514;28;20205;-58
2023/12/29 06:02:45;;;;;;;4.47;1.60;;;;;;;;;;5033225;28;20186;-57
2023/12/29 06:05:12;;;;;;;3.97;1.90;;;;;;;;;;5024907;28;20188;-57
2023/12/29 06:07:38;;;;;;;3.87;1.80;;;;;;;;;;5029535;28;20309;-57
2023/12/29 06:10:04;;;;;;;4.07;1.80;;;;;;;;;;5027843;28;20181;-58
2023/12/29 06:12:30;;;;;;;8.03;2.13;;;;;;;;;;5028008;28;20185;-54
2023/12/29 06:14:56;;;;;;;4.13;1.73;;;;;;;;;;5023461;28;20174;-53
2023/12/29 06:17:22;;;;;;;3.93;1.63;;;;;;;;;;5034065;28;20240;-56
2023/12/29 06:19:48;;;;;;;3.57;2.23;;;;;;;;;;5027153;28;20188;-53
2023/12/29 06:22:15;;;;;;;6.00;1.70;;;;;;;;;;5030038;28;20174;-53
2023/12/29 06:24:41;;;;;;;4.07;1.87;;;;;;;;;;5027653;28;20178;-57
2023/12/29 06:27:10;;;;;;;2.00;1.70;;;;;;;;;;5030980;28;20166;-54
2023/12/29 06:29:36;;;;;;;4.30;1.93;;;;;;;;;;5028294;28;20196;-54
2023/12/29 06:32:03;;;;;;;5.20;2.17;;;;;;;;;;5027660;28;20224;-54
2023/12/29 06:34:29;;;;;;;7.17;2.03;;;;;;;;;;5029078;28;20185;-54
2023/12/29 06:36:55;;;;;;;3.70;1.77;;;;;;;;;;5029526;28;20177;-53
2023/12/29 06:39:22;;;;;;;8.57;1.90;;;;;;;;;;5030156;28;20182;-53
2023/12/29 06:41:48;;;;;;;5.83;1.80;;;;;;;;;;5027997;28;20665;-54
2023/12/29 06:44:14;;;;;;;5.70;2.23;;;;;;;;;;5029350;28;20224;-54
2023/12/29 06:46:40;;;;;;;5.40;1.83;;;;;;;;;;5029633;28;20251;-53
2023/12/29 06:49:08;;;;;;;2.93;1.80;;;;;;;;;;5028635;28;20613;-53
2023/12/29 06:51:35;;;;;;;3.23;1.90;;;;;;;;;;5029636;28;20181;-54
2023/12/29 06:54:01;;;;;;;4.30;2.00;;;;;;;;;;5028072;28;20185;-57
2023/12/29 06:56:28;;;;;;;4.90;1.90;;;;;;;;;;5028668;28;20708;-57
2023/12/29 06:58:54;;;;;;;4.53;1.83;;;;;;;;;;5030165;28;20192;-57
2023/12/29 07:01:20;;;;;;;5.80;1.43;;;;;;;;;;5028158;28;20309;-57
2023/12/29 07:03:46;;;;;;;4.47;2.00;;;;;;;;;;5028637;28;20217;-57
2023/12/29 07:06:12;;;;;;;3.03;1.30;;;;;;;;;;5029633;28;20194;-57
2023/12/29 07:08:38;;;;;;;2.80;1.57;;;;;;;;;;5031695;28;20177;-56
2023/12/29 07:11:04;;;;;;;6.00;2.13;;;;;;;;;;5027141;28;20649;-57
2023/12/29 07:13:30;;;;;;;4.30;2.23;;;;;;;;;;5028518;28;20212;-57
2023/12/29 07:15:57;;;;;;;4.77;1.80;;;;;;;;;;5027375;28;20225;-57
2023/12/29 07:18:23;;;;;;;3.07;1.63;;;;;;;;;;5028303;28;20194;-57
2023/12/29 07:20:49;;;;;;;3.77;1.93;;;;;;;;;;5028546;28;20208;-57
2023/12/29 07:23:15;;;;;;;4.20;2.30;;;;;;;;;;5027649;28;20178;-57
2023/12/29 07:25:41;;;;;;;5.30;2.57;;;;;;;;;;5028445;28;20239;-57
2023/12/29 07:28:07;;;;;;;4.27;1.80;;;;;;;;;;5033939;28;20611;-57
2023/12/29 07:30:33;;;;;;;4.73;1.80;;;;;;;;;;5024010;28;20218;-57
2023/12/29 07:32:59;;;;;;;4.50;1.97;;;;;;;;;;5026973;28;20190;-57
2023/12/29 07:35:25;;;;;;;2.37;1.53;;;;;;;;;;5029950;28;20222;-60
2023/12/29 07:37:51;;;;;;;4.37;1.87;;;;;;;;;;5023727;28;20185;-60
2023/12/29 07:40:17;;;;;;;4.50;2.00;;;;;;;;;;5024690;28;20552;-55
2023/12/29 07:42:45;;;;;;;4.73;1.57;;;;;;;;;;5030866;28;20542;-55
2023/12/29 07:45:11;;;;;;;3.07;1.67;;;;;;;;;;5030967;28;20178;-55
2023/12/29 07:47:37;;;;;;;6.47;2.00;;;;;;;;;;5032973;28;20182;-55
2023/12/29 07:50:04;;;;;;;3.63;1.60;;;;;;;;;;5027232;28;20255;-55
2023/12/29 07:52:30;;;;;;;4.90;1.90;;;;;;;;;;5028449;28;20174;-55
2023/12/29 07:54:56;;;;;;;2.77;1.60;;;;;;;;;;5030667;28;20232;-55
2023/12/29 07:57:23;;;;;;;6.13;2.17;;;;;;;;;;5032997;28;20686;-55
2023/12/29 07:59:48;;;;;;;4.70;2.13;;;;;;;;;;5030090;28;20201;-56
2023/12/29 08:02:14;;;;;;;4.27;1.37;;;;;;;;;;5031849;28;20218;-55
2023/12/29 08:04:41;;;;;;;6.87;2.27;;;;;;;;;;5030615;28;20166;-55
2023/12/29 08:07:07;;;;;;;6.27;2.03;;;;;;;;;;5031668;28;20173;-55
2023/12/29 08:09:33;;;;;;;5.83;1.80;;;;;;;;;;5031392;28;20185;-55
2023/12/29 08:12:00;;;;;;;5.13;2.20;;;;;;;;;;5031698;28;20664;-55
2023/12/29 08:14:26;;;;;;;3.40;1.50;;;;;;;;;;5031869;28;20642;-55
2023/12/29 08:16:52;;;;;;;5.40;1.70;;;;;;;;;;5031486;28;20308;-55
2023/12/29 08:19:18;;;;;;;2.77;1.50;;;;;;;;;;5030968;28;20185;-55
2023/12/29 08:21:44;;;;;;;6.93;2.03;;;;;;;;;;5032340;28;20717;-55
2023/12/29 08:24:10;;;;;;;4.70;2.13;;;;;;;;;;5027424;28;20194;-55
2023/12/29 08:26:42;;;;;;;6.10;2.17;;;;;;;;;;5030891;28;20224;-55
2023/12/29 08:29:08;;;;;;;5.97;1.67;;;;;;;;;;5030052;28;20212;-55
2023/12/29 08:31:34;;;;;;;3.30;1.77;;;;;;;;;;5027367;28;20173;-56
2023/12/29 08:34:01;;;;;;;1.80;1.50;;;;;;;;;;5030662;28;20252;-56
2023/12/29 08:36:27;;;;;;;4.63;1.53;;;;;;;;;;5031387;28;20220;-55
2023/12/29 08:38:53;;;;;;;3.03;1.37;;;;;;;;;;5031755;28;20198;-56
2023/12/29 08:41:19;;;;;;;2.63;1.63;;;;;;;;;;5030280;28;20213;-56
2023/12/29 08:43:45;;;;;;;3.23;1.17;;;;;;;;;;5033542;28;20166;-57
2023/12/29 08:46:11;;;;;;;2.63;1.37;;;;;;;;;;5026097;28;20190;-57
2023/12/29 08:48:37;;;;;;;7.57;2.07;;;;;;;;;;5029087;28;20197;-57
2023/12/29 08:51:03;;;;;;;2.73;1.63;;;;;;;;;;5031772;28;20252;-57
2023/12/29 08:53:33;;;;;;;4.40;1.37;;;;;;;;;;5030204;28;20556;-57
2023/12/29 08:55:59;;;;;;;1.73;0.90;;;;;;;;;;5028208;28;20657;-57
2023/12/29 08:58:25;;;;;;;3.93;1.30;;;;;;;;;;5030518;28;20178;-58
2023/12/29 09:00:51;;;;;;;4.00;1.97;;;;;;;;;;5029156;28;20548;-57
2023/12/29 09:03:17;;;;;;;3.53;1.13;;;;;;;;;;5026101;28;20239;-57
2023/12/29 09:05:43;;;;;;;2.43;1.20;;;;;;;;;;5030836;28;20174;-57
2023/12/29 09:08:09;;;;;;;2.20;1.10;;;;;;;;;;5031579;28;20177;-56
2023/12/29 09:10:35;;;;;;;3.40;1.40;;;;;;;;;;5030418;28;20664;-57
2023/12/29 09:13:01;;;;;;;1.93;1.10;;;;;;;;;;5029465;28;20201;-57
2023/12/29 09:15:27;;;;;;;2.57;1.37;;;;;;;;;;5024005;28;20174;-55
2023/12/29 09:17:53;;;;;;;2.07;1.40;;;;;;;;;;5025966;28;20170;-55
2023/12/29 09:20:19;;;;;;;3.20;1.20;;;;;;;;;;5028724;28;20213;-55
2023/12/29 09:22:45;;;;;;;2.13;1.30;;;;;;;;;;5030753;28;20236;-55
2023/12/29 09:25:12;;;;;;;1.10;1.00;;;;;;;;;;5029718;28;20177;-55
2023/12/29 09:27:38;;;;;;;3.70;1.23;;;;;;;;;;5031609;28;20698;-56
2023/12/29 09:30:05;;;;;;;1.47;1.07;;;;;;;;;;5029359;28;20166;-55
2023/12/29 09:32:31;;;;;;;1.67;1.40;;;;;;;;;;5031505;28;20578;-55
2023/12/29 09:34:57;;;;;;;1.57;1.10;;;;;;;;;;5030318;28;20166;-56
2023/12/29 09:37:23;;;;;;;1.90;1.10;;;;;;;;;;5027251;28;20185;-55
2023/12/29 09:39:49;;;;;;;2.07;1.10;;;;;;;;;;5029368;28;20186;-55
2023/12/29 09:42:22;;;;;;;2.93;1.20;;;;;;;;;;5031654;28;20189;-55
2023/12/29 09:44:51;;;;;;;1.80;1.13;;;;;;;;;;5027329;28;20646;-56
2023/12/29 09:47:22;;;;;;;0.97;0.80;;;;;;;;;;5034051;28;20634;-56
2023/12/29 09:49:49;;;;;;;1.33;1.00;;;;;;;;;;5034389;28;20275;-55
2023/12/29 09:52:16;;;;;;;3.03;1.33;;;;;;;;;;5033726;28;20324;-55
2023/12/29 09:54:42;;;;;;;2.47;1.17;;;;;;;;;;5029519;28;20201;-55
2023/12/29 09:57:09;;;;;;;1.90;0.90;;;;;;;;;;5030078;28;20189;-55
2023/12/29 09:59:38;;;;;;;0.83;0.83;;;;;;;;;;5026454;28;20235;-56
2023/12/29 10:02:05;;;;;;;2.07;1.27;;;;;;;;;;5028930;28;20750;-56
2023/12/29 10:04:32;;;;;;;2.10;1.20;;;;;;;;;;5025530;28;20177;-55
2023/12/29 10:07:04;;;;;;;2.87;0.93;;;;;;;;;;5030215;28;20185;-55
2023/12/29 10:09:31;;;;;;;1.00;0.90;;;;;;;;;;5028056;28;20517;-55
2023/12/29 10:11:57;;;;;;;0.90;0.80;;;;;;;;;;5029757;28;20177;-55
2023/12/29 10:14:24;;;;;;;0.90;0.90;;;;;;;;;;5025802;28;20235;-55
2023/12/29 10:17:00;;;;;;;2.27;1.00;;;;;;;;;;5027488;28;20469;-56
2023/12/29 10:19:53;;;;;;;2.93;1.03;;;;;;;;;;5028761;28;20231;-55
2023/12/29 10:22:26;;;;;;;1.17;1.07;;;;;;;;;;5021567;28;20613;-55
2023/12/29 10:24:52;;;;;;;1.00;0.80;;;;;;;;;;5028629;28;20193;-55
2023/12/29 10:27:18;;;;;;;3.77;1.00;;;;;;;;;;5027100;28;20174;-55
2023/12/29 10:29:44;;;;;;;0.80;0.80;;;;;;;;;;5026713;28;20264;-55
2023/12/29 10:32:10;;;;;;;1.67;1.00;;;;;;;;;;5027903;28;20183;-55
2023/12/29 10:34:37;;;;;;;1.87;0.90;;;;;;;;;;5031267;28;20185;-55
2023/12/29 10:37:06;;;;;;;2.03;1.10;;;;;;;;;;5020846;28;20229;-55
2023/12/29 10:39:33;;;;;;;1.47;1.37;;;;;;;;;;5023361;28;20185;-55
2023/12/29 10:42:06;;;;;;;2.30;1.30;;;;;;;;;;5030209;28;20204;-55
2023/12/29 10:44:34;;;;;;;3.53;1.10;;;;;;;;;;5030575;28;20573;-55
2023/12/29 10:47:08;;;;;;;3.70;1.20;;;;;;;;;;5027761;28;20265;-55
2023/12/29 10:49:34;;;;;;;2.03;1.60;;;;;;;;;;5027028;28;20269;-55
2023/12/29 10:52:00;;;;;;;1.00;1.00;;;;;;;;;;5029848;28;20201;-55
2023/12/29 10:54:26;;;;;;;2.40;1.30;;;;;;;;;;5025092;28;20545;-55
2023/12/29 10:57:02;;;;;;;2.30;1.23;;;;;;;;;;5028425;28;20622;-56
2023/12/29 10:59:29;;;;;;;3.13;1.43;;;;;;;;;;5027786;28;20196;-56
2023/12/29 11:01:55;;;;;;;2.37;1.20;;;;;;;;;;5028543;28;20209;-55
2023/12/29 11:04:24;;;;;;;2.10;1.07;;;;;;;;;;5026908;28;20313;-55
2023/12/29 11:06:51;;;;;;;2.17;1.30;;;;;;;;;;5026270;28;20178;-55
2023/12/29 11:09:30;;;;;;;1.87;1.07;;;;;;;;;;5026955;28;20169;-55
2023/12/29 11:11:58;;;;;;;2.50;1.10;;;;;;;;;;5028261;28;20745;-56
2023/12/29 11:14:24;;;;;;;0.93;0.90;;;;;;;;;;5026923;28;20227;-55
2023/12/29 11:16:51;;;;;;;4.37;1.03;;;;;;;;;;5035678;28;20225;-55
2023/12/29 11:19:18;;;;;;;1.03;0.93;;;;;;;;;;5032889;28;20573;-55
2023/12/29 11:21:45;;;;;;;2.93;1.20;;;;;;;;;;5032867;28;20669;-56
2023/12/29 11:24:11;;;;;;;3.40;1.30;;;;;;;;;;5032624;28;20261;-55
2023/12/29 11:26:38;;;;;;;1.97;1.20;;;;;;;;;;5032995;28;20174;-55
2023/12/29 11:29:04;;;;;;;1.77;1.33;;;;;;;;;;5030406;28;20209;-56
2023/12/29 11:31:31;;;;;;;2.90;1.27;;;;;;;;;;5033028;28;20716;-55
2023/12/29 11:34:03;;;;;;;2.50;1.50;;;;;;;;;;5032742;28;20239;-55
2023/12/29 11:36:32;;;;;;;1.30;1.20;;;;;;;;;;5030996;28;20277;-57
2023/12/29 11:39:01;;;;;;;2.83;1.50;;;;;;;;;;5028025;28;20181;-58
2023/12/29 11:41:33;;;;;;;8.00;1.20;;;;;;;;;;5034218;28;20236;-58
2023/12/29 11:44:00;;;;;;;1.50;1.40;;;;;;;;;;5031366;28;20205;-58
2023/12/29 11:46:38;;;;;;;3.10;1.57;;;;;;;;;;5028092;28;20676;-58
2023/12/29 11:49:04;;;;;;;2.87;1.40;;;;;;;;;;5032611;28;20197;-58
2023/12/29 11:51:35;;;;;;;3.00;1.90;;;;;;;;;;5029225;28;20228;-58
2023/12/29 11:54:02;;;;;;;3.90;1.30;;;;;;;;;;5029086;28;20730;-58
2023/12/29 11:56:35;;;;;;;2.47;1.50;;;;;;;;;;5034946;28;20181;-58
2023/12/29 11:59:13;;;;;;;5.43;1.80;;;;;;;;;;5033114;28;20174;-59
2023/12/29 12:01:39;;;;;;;6.50;1.87;;;;;;;;;;5031322;28;20566;-58
2023/12/29 12:04:25;;;;;;;2.50;1.60;;;;;;;;;;5027976;28;20185;-59
2023/12/29 12:06:51;;;;;;;1.90;1.60;;;;;;;;;;5030522;28;20182;-58
2023/12/29 12:09:23;;;;;;;1.87;1.50;;;;;;;;;;5032206;28;20189;-58
2023/12/29 12:11:50;;;;;;;3.73;1.43;;;;;;;;;;5032675;28;20532;-59
2023/12/29 12:14:34;;;;;;;1.70;1.60;;;;;;;;;;5032411;28;20292;-59
2023/12/29 12:17:01;;;;;;;2.93;1.57;;;;;;;;;;5032015;28;20639;-58
2023/12/29 12:19:29;;;;;;;1.53;1.40;;;;;;;;;;5030756;28;20648;-58
2023/12/29 12:21:56;;;;;;;1.60;1.40;;;;;;;;;;5028571;28;20208;-58
2023/12/29 12:24:22;;;;;;;2.70;1.70;;;;;;;;;;5030547;28;20182;-58
2023/12/29 12:26:49;;;;;;;5.63;2.50;;;;;;;;;;5031421;28;20204;-58
2023/12/29 12:29:15;;;;;;;5.83;1.90;;;;;;;;;;5030466;28;20711;-58
2023/12/29 12:31:54;;;;;;;3.93;1.90;;;;;;;;;;5030761;28;20201;-57
2023/12/29 12:34:20;;;;;;;4.27;1.60;;;;;;;;;;5029231;28;20181;-57
2023/12/29 12:36:50;;;;;;;1.83;1.40;;;;;;;;;;5032105;28;20169;-57
2023/12/29 12:39:16;;;;;;;2.27;1.63;;;;;;;;;;5028953;28;20174;-57
2023/12/29 12:41:42;;;;;;;1.57;1.47;;;;;;;;;;5022504;28;20206;-57
2023/12/29 12:44:12;;;;;;;3.73;1.83;;;;;;;;;;5031273;28;20162;-57
2023/12/29 12:46:45;;;;;;;3.80;1.70;;;;;;;;;;5033062;28;20634;-56
2023/12/29 12:49:11;;;;;;;2.30;1.80;;;;;;;;;;5022978;28;20621;-57
2023/12/29 12:51:38;;;;;;;2.30;1.73;;;;;;;;;;5029142;28;20281;-56
2023/12/29 12:54:04;;;;;;;1.93;1.73;;;;;;;;;;5030559;28;20183;-56
2023/12/29 12:56:31;;;;;;;2.10;1.60;;;;;;;;;;5030423;28;20171;-57
2023/12/29 12:59:02;;;;;;;2.73;2.03;;;;;;;;;;5026189;28;20631;-57
2023/12/29 13:01:28;;;;;;;2.43;1.73;;;;;;;;;;5033760;28;20654;-57
2023/12/29 13:03:54;;;;;;;4.17;1.77;;;;;;;;;;5029022;28;20172;-57
2023/12/29 13:06:21;;;;;;;2.70;1.70;;;;;;;;;;5038341;28;20197;-57
2023/12/29 13:08:50;;;;;;;2.53;1.80;;;;;;;;;;5029451;28;20201;-57
2023/12/29 13:11:21;;;;;;;5.87;1.93;;;;;;;;;;5026026;28;20950;-58
2023/12/29 13:13:48;;;;;;;2.30;1.70;;;;;;;;;;5030305;28;20196;-58
2023/12/29 13:16:14;;;;;;;2.13;1.67;;;;;;;;;;5031059;28;20231;-57
2023/12/29 13:18:40;;;;;;;2.47;1.90;;;;;;;;;;5028250;28;20190;-57
2023/12/29 13:21:06;;;;;;;2.00;1.57;;;;;;;;;;5029826;28;20269;-57
2023/12/29 13:23:33;;;;;;;1.90;1.70;;;;;;;;;;5029422;28;20187;-57
2023/12/29 13:26:06;;;;;;;3.17;1.90;;;;;;;;;;5027929;28;20234;-56
2023/12/29 13:28:32;;;;;;;1.83;1.70;;;;;;;;;;5030462;28;20630;-57
2023/12/29 13:30:59;;;;;;;2.80;1.60;;;;;;;;;;5027447;28;20247;-56
2023/12/29 13:33:24;;;;;;;2.40;1.87;;;;;;;;;;5028143;28;20181;-57
2023/12/29 13:35:55;;;;;;;2.17;1.60;;;;;;;;;;5028754;28;20532;-56
2023/12/29 13:38:29;;;;;;;2.37;2.03;;;;;;;;;;5029462;28;20657;-57
2023/12/29 13:40:59;;;;;;;1.57;1.47;;;;;;;;;;5029378;28;20212;-57
2023/12/29 13:43:25;;;;;;;3.00;1.90;;;;;;;;;;5029284;28;20604;-57
2023/12/29 13:45:52;;;;;;;1.90;1.70;;;;;;;;;;5028778;28;20185;-56
2023/12/29 13:48:18;;;;;;;3.67;1.60;;;;;;;;;;5027948;28;20228;-57
2023/12/29 13:50:48;;;;;;;1.90;1.43;;;;;;;;;;5027775;28;20638;-57
2023/12/29 13:53:20;;;;;;;3.07;2.00;;;;;;;;;;5028193;28;20188;-57
2023/12/29 13:55:46;;;;;;;1.83;1.63;;;;;;;;;;5029048;28;20273;-57
2023/12/29 13:58:13;;;;;;;2.70;1.33;;;;;;;;;;5029983;28;20177;-57
2023/12/29 14:00:43;;;;;;;5.50;2.20;;;;;;;;;;5028914;28;20205;-56
2023/12/29 14:03:28;;;;;;;2.60;1.50;;;;;;;;;;5026751;28;20583;-56
2023/12/29 14:06:00;;;;;;;3.90;1.70;;;;;;;;;;5029771;28;20200;-57
2023/12/29 14:08:27;;;;;;;4.57;2.07;;;;;;;;;;5029424;28;20174;-56
2023/12/29 14:10:53;;;;;;;2.13;1.60;;;;;;;;;;5026943;28;20186;-57
2023/12/29 14:13:20;;;;;;;4.00;1.60;;;;;;;;;;5031893;28;20208;-57
2023/12/29 14:15:51;;;;;;;2.73;1.60;;;;;;;;;;5029535;28;20681;-56
2023/12/29 14:18:29;;;;;;;2.20;1.67;;;;;;;;;;5026581;28;20614;-57
2023/12/29 14:20:55;;;;;;;2.57;1.67;;;;;;;;;;5030422;28;20205;-57
2023/12/29 14:23:21;;;;;;;1.90;1.40;;;;;;;;;;5029283;28;20514;-57
2023/12/29 14:25:47;;;;;;;7.80;2.00;;;;;;;;;;5026896;28;20197;-56
2023/12/29 14:28:23;;;;;;;4.03;1.67;;;;;;;;;;5029185;28;20579;-57
2023/12/29 14:30:50;;;;;;;3.00;1.57;;;;;;;;;;5026700;28;20177;-57
2023/12/29 14:33:16;;;;;;;2.23;1.37;;;;;;;;;;5027093;28;20268;-58
2023/12/29 14:35:42;;;;;;;1.40;1.30;;;;;;;;;;5028439;28;20273;-57
2023/12/29 14:38:08;;;;;;;2.30;1.60;;;;;;;;;;5023164;28;20526;-57
2023/12/29 14:40:34;;;;;;;4.87;1.70;;;;;;;;;;5025483;28;20209;-57
2023/12/29 14:43:03;;;;;;;3.10;1.50;;;;;;;;;;5024618;28;20702;-57